sensor_id;sensor_type;location;lat;lon;timestamp;temperature;humidity
42097;DHT22;27754;45.414;11.084;2023-07-31T00:01:56;24.10;81.80
42097;DHT22;27754;45.414;11.084;2023-07-31T00:04:23;24.10;81.80
42097;DHT22;27754;45.414;11.084;2023-07-31T00:06:50;24.10;81.60
42097;DHT22;27754;45.414;11.084;2023-07-31T00:09:17;24.10;81.40
42097;DHT22;27754;45.414;11.084;2023-07-31T00:11:44;24.00;81.50
42097;DHT22;27754;45.414;11.084;2023-07-31T00:14:11;24.10;81.50
42097;DHT22;27754;45.414;11.084;2023-07-31T00:16:38;24.10;81.60
42097;DHT22;27754;45.414;11.084;2023-07-31T00:19:05;24.10;81.40
42097;DHT22;27754;45.414;11.084;2023-07-31T00:21:32;24.10;81.20
42097;DHT22;27754;45.414;11.084;2023-07-31T00:23:59;24.10;81.20
42097;DHT22;27754;45.414;11.084;2023-07-31T00:26:26;24.10;81.10
42097;DHT22;27754;45.414;11.084;2023-07-31T00:28:53;24.10;81.00
42097;DHT22;27754;45.414;11.084;2023-07-31T00:31:20;24.10;80.80
42097;DHT22;27754;45.414;11.084;2023-07-31T00:33:47;24.10;80.80
42097;DHT22;27754;45.414;11.084;2023-07-31T00:36:14;24.10;81.00
42097;DHT22;27754;45.414;11.084;2023-07-31T00:38:42;24.10;81.00
42097;DHT22;27754;45.414;11.084;2023-07-31T00:41:09;24.00;80.90
42097;DHT22;27754;45.414;11.084;2023-07-31T00:43:36;24.00;80.90
42097;DHT22;27754;45.414;11.084;2023-07-31T00:46:03;24.00;80.90
42097;DHT22;27754;45.414;11.084;2023-07-31T00:48:30;24.00;80.60
42097;DHT22;27754;45.414;11.084;2023-07-31T00:50:58;24.10;80.40
42097;DHT22;27754;45.414;11.084;2023-07-31T00:53:25;24.10;80.10
42097;DHT22;27754;45.414;11.084;2023-07-31T00:55:53;24.10;79.90
42097;DHT22;27754;45.414;11.084;2023-07-31T00:58:20;24.20;79.70
42097;DHT22;27754;45.414;11.084;2023-07-31T01:00:47;24.20;79.90
42097;DHT22;27754;45.414;11.084;2023-07-31T01:03:14;24.20;79.80
42097;DHT22;27754;45.414;11.084;2023-07-31T01:06:09;24.10;79.80
42097;DHT22;27754;45.414;11.084;2023-07-31T01:08:49;24.10;80.20
42097;DHT22;27754;45.414;11.084;2023-07-31T01:11:30;24.00;80.20
42097;DHT22;27754;45.414;11.084;2023-07-31T01:13:58;24.00;80.50
42097;DHT22;27754;45.414;11.084;2023-07-31T01:16:26;23.90;80.70
42097;DHT22;27754;45.414;11.084;2023-07-31T01:18:53;24.00;80.70
42097;DHT22;27754;45.414;11.084;2023-07-31T01:26:45;24.00;80.90
42097;DHT22;27754;45.414;11.084;2023-07-31T01:29:26;23.90;81.00
42097;DHT22;27754;45.414;11.084;2023-07-31T01:31:59;24.00;80.90
42097;DHT22;27754;45.414;11.084;2023-07-31T01:34:28;24.00;81.30
42097;DHT22;27754;45.414;11.084;2023-07-31T01:36:56;23.90;82.00
42097;DHT22;27754;45.414;11.084;2023-07-31T01:39:25;23.80;82.40
42097;DHT22;27754;45.414;11.084;2023-07-31T01:41:52;23.80;82.80
42097;DHT22;27754;45.414;11.084;2023-07-31T01:44:20;23.80;82.80
42097;DHT22;27754;45.414;11.084;2023-07-31T01:46:47;23.60;83.30
42097;DHT22;27754;45.414;11.084;2023-07-31T01:49:14;23.60;83.20
42097;DHT22;27754;45.414;11.084;2023-07-31T01:51:41;23.60;83.20
42097;DHT22;27754;45.414;11.084;2023-07-31T01:54:08;23.50;83.40
42097;DHT22;27754;45.414;11.084;2023-07-31T01:56:35;23.40;83.30
42097;DHT22;27754;45.414;11.084;2023-07-31T01:59:03;23.30;83.90
42097;DHT22;27754;45.414;11.084;2023-07-31T02:01:30;23.30;84.30
42097;DHT22;27754;45.414;11.084;2023-07-31T02:03:58;23.30;84.50
42097;DHT22;27754;45.414;11.084;2023-07-31T02:06:25;23.30;84.40
42097;DHT22;27754;45.414;11.084;2023-07-31T02:08:52;23.30;84.50
42097;DHT22;27754;45.414;11.084;2023-07-31T02:11:19;23.20;84.90
42097;DHT22;27754;45.414;11.084;2023-07-31T02:13:49;23.10;85.30
42097;DHT22;27754;45.414;11.084;2023-07-31T02:16:16;23.10;85.20
42097;DHT22;27754;45.414;11.084;2023-07-31T02:18:43;23.00;85.60
42097;DHT22;27754;45.414;11.084;2023-07-31T02:21:10;22.90;85.70
42097;DHT22;27754;45.414;11.084;2023-07-31T02:23:37;22.90;85.70
42097;DHT22;27754;45.414;11.084;2023-07-31T02:26:04;23.00;85.70
42097;DHT22;27754;45.414;11.084;2023-07-31T02:28:31;23.00;85.50
42097;DHT22;27754;45.414;11.084;2023-07-31T02:30:59;23.00;85.20
42097;DHT22;27754;45.414;11.084;2023-07-31T02:33:26;22.90;85.40
42097;DHT22;27754;45.414;11.084;2023-07-31T02:35:53;22.90;85.40
42097;DHT22;27754;45.414;11.084;2023-07-31T02:38:21;22.80;85.50
42097;DHT22;27754;45.414;11.084;2023-07-31T02:40:48;22.80;85.60
42097;DHT22;27754;45.414;11.084;2023-07-31T02:43:16;22.80;85.50
42097;DHT22;27754;45.414;11.084;2023-07-31T02:45:43;22.80;84.90
42097;DHT22;27754;45.414;11.084;2023-07-31T02:48:10;22.80;85.40
42097;DHT22;27754;45.414;11.084;2023-07-31T02:50:37;22.80;85.30
42097;DHT22;27754;45.414;11.084;2023-07-31T02:53:04;22.80;85.10
42097;DHT22;27754;45.414;11.084;2023-07-31T02:55:31;22.80;85.10
42097;DHT22;27754;45.414;11.084;2023-07-31T02:57:58;22.80;85.20
42097;DHT22;27754;45.414;11.084;2023-07-31T03:00:26;22.80;85.40
42097;DHT22;27754;45.414;11.084;2023-07-31T03:02:52;22.80;85.40
42097;DHT22;27754;45.414;11.084;2023-07-31T03:05:20;22.80;85.60
42097;DHT22;27754;45.414;11.084;2023-07-31T03:07:47;22.80;85.80
42097;DHT22;27754;45.414;11.084;2023-07-31T03:10:14;22.80;85.50
42097;DHT22;27754;45.414;11.084;2023-07-31T03:12:41;22.90;85.50
42097;DHT22;27754;45.414;11.084;2023-07-31T03:15:09;22.90;85.60
42097;DHT22;27754;45.414;11.084;2023-07-31T03:17:36;22.80;85.70
42097;DHT22;27754;45.414;11.084;2023-07-31T03:20:03;22.80;86.00
42097;DHT22;27754;45.414;11.084;2023-07-31T03:22:30;22.70;86.40
42097;DHT22;27754;45.414;11.084;2023-07-31T03:24:57;22.70;86.50
42097;DHT22;27754;45.414;11.084;2023-07-31T03:27:24;22.60;86.50
42097;DHT22;27754;45.414;11.084;2023-07-31T03:29:51;22.60;86.80
42097;DHT22;27754;45.414;11.084;2023-07-31T03:32:18;22.70;86.80
42097;DHT22;27754;45.414;11.084;2023-07-31T03:34:46;22.70;86.80
42097;DHT22;27754;45.414;11.084;2023-07-31T03:37:12;22.70;86.80
42097;DHT22;27754;45.414;11.084;2023-07-31T03:39:40;22.60;86.70
42097;DHT22;27754;45.414;11.084;2023-07-31T03:42:06;22.60;87.30
42097;DHT22;27754;45.414;11.084;2023-07-31T03:44:34;22.60;87.20
42097;DHT22;27754;45.414;11.084;2023-07-31T03:47:01;22.60;87.10
42097;DHT22;27754;45.414;11.084;2023-07-31T03:49:28;22.60;86.60
42097;DHT22;27754;45.414;11.084;2023-07-31T03:51:55;22.60;86.40
42097;DHT22;27754;45.414;11.084;2023-07-31T03:54:22;22.40;87.10
42097;DHT22;27754;45.414;11.084;2023-07-31T03:56:50;22.40;86.90
42097;DHT22;27754;45.414;11.084;2023-07-31T03:59:16;22.40;87.20
42097;DHT22;27754;45.414;11.084;2023-07-31T04:01:43;22.40;87.20
42097;DHT22;27754;45.414;11.084;2023-07-31T04:04:10;22.40;86.60
42097;DHT22;27754;45.414;11.084;2023-07-31T04:06:37;22.40;86.60
42097;DHT22;27754;45.414;11.084;2023-07-31T04:09:05;22.50;86.20
42097;DHT22;27754;45.414;11.084;2023-07-31T04:11:32;22.60;85.60
42097;DHT22;27754;45.414;11.084;2023-07-31T04:13:59;22.60;85.40
42097;DHT22;27754;45.414;11.084;2023-07-31T04:16:26;22.70;85.00
42097;DHT22;27754;45.414;11.084;2023-07-31T04:18:53;22.70;85.00
42097;DHT22;27754;45.414;11.084;2023-07-31T04:21:19;22.70;84.90
42097;DHT22;27754;45.414;11.084;2023-07-31T04:23:46;22.80;84.90
42097;DHT22;27754;45.414;11.084;2023-07-31T04:26:13;22.80;84.90
42097;DHT22;27754;45.414;11.084;2023-07-31T04:28:40;22.80;84.90
42097;DHT22;27754;45.414;11.084;2023-07-31T04:31:07;23.00;84.30
42097;DHT22;27754;45.414;11.084;2023-07-31T04:33:35;23.00;84.30
42097;DHT22;27754;45.414;11.084;2023-07-31T04:36:02;23.10;83.80
42097;DHT22;27754;45.414;11.084;2023-07-31T04:38:29;23.00;84.10
42097;DHT22;27754;45.414;11.084;2023-07-31T04:40:56;23.00;84.20
42097;DHT22;27754;45.414;11.084;2023-07-31T04:43:23;23.00;84.20
42097;DHT22;27754;45.414;11.084;2023-07-31T04:45:50;23.00;84.00
42097;DHT22;27754;45.414;11.084;2023-07-31T04:48:17;23.20;83.20
42097;DHT22;27754;45.414;11.084;2023-07-31T04:50:44;23.30;83.00
42097;DHT22;27754;45.414;11.084;2023-07-31T04:53:11;23.40;83.10
42097;DHT22;27754;45.414;11.084;2023-07-31T04:55:39;23.40;83.50
42097;DHT22;27754;45.414;11.084;2023-07-31T04:58:05;23.30;83.80
42097;DHT22;27754;45.414;11.084;2023-07-31T05:00:32;23.30;83.50
42097;DHT22;27754;45.414;11.084;2023-07-31T05:02:59;23.30;83.20
42097;DHT22;27754;45.414;11.084;2023-07-31T05:05:27;23.30;83.30
42097;DHT22;27754;45.414;11.084;2023-07-31T05:07:54;23.30;83.00
42097;DHT22;27754;45.414;11.084;2023-07-31T05:10:21;23.30;82.90
42097;DHT22;27754;45.414;11.084;2023-07-31T05:12:48;23.40;82.50
42097;DHT22;27754;45.414;11.084;2023-07-31T05:15:15;23.30;82.70
42097;DHT22;27754;45.414;11.084;2023-07-31T05:17:42;23.30;82.70
42097;DHT22;27754;45.414;11.084;2023-07-31T05:20:09;23.30;82.30
42097;DHT22;27754;45.414;11.084;2023-07-31T05:22:37;23.50;82.40
42097;DHT22;27754;45.414;11.084;2023-07-31T05:25:04;23.80;82.10
42097;DHT22;27754;45.414;11.084;2023-07-31T05:27:32;23.80;81.70
42097;DHT22;27754;45.414;11.084;2023-07-31T05:29:59;23.90;81.40
42097;DHT22;27754;45.414;11.084;2023-07-31T05:32:26;24.10;80.60
42097;DHT22;27754;45.414;11.084;2023-07-31T05:34:53;24.20;80.70
42097;DHT22;27754;45.414;11.084;2023-07-31T05:37:21;24.30;80.70
42097;DHT22;27754;45.414;11.084;2023-07-31T05:39:48;24.30;81.60
42097;DHT22;27754;45.414;11.084;2023-07-31T05:42:15;24.40;81.40
42097;DHT22;27754;45.414;11.084;2023-07-31T05:44:42;24.50;81.60
42097;DHT22;27754;45.414;11.084;2023-07-31T05:47:10;24.60;81.70
42097;DHT22;27754;45.414;11.084;2023-07-31T05:49:37;24.80;81.50
42097;DHT22;27754;45.414;11.084;2023-07-31T05:52:04;24.80;81.70
42097;DHT22;27754;45.414;11.084;2023-07-31T05:54:32;24.80;81.40
42097;DHT22;27754;45.414;11.084;2023-07-31T05:56:59;24.80;81.40
42097;DHT22;27754;45.414;11.084;2023-07-31T05:59:26;24.70;81.10
42097;DHT22;27754;45.414;11.084;2023-07-31T06:01:53;24.70;81.10
42097;DHT22;27754;45.414;11.084;2023-07-31T06:04:20;24.80;80.90
42097;DHT22;27754;45.414;11.084;2023-07-31T06:06:51;24.90;81.10
42097;DHT22;27754;45.414;11.084;2023-07-31T06:09:18;25.00;80.90
42097;DHT22;27754;45.414;11.084;2023-07-31T06:11:47;25.00;80.60
42097;DHT22;27754;45.414;11.084;2023-07-31T06:14:14;25.10;80.80
42097;DHT22;27754;45.414;11.084;2023-07-31T06:16:41;25.30;79.90
42097;DHT22;27754;45.414;11.084;2023-07-31T06:19:08;25.30;79.70
42097;DHT22;27754;45.414;11.084;2023-07-31T06:21:35;25.40;79.50
42097;DHT22;27754;45.414;11.084;2023-07-31T06:24:05;25.60;79.30
42097;DHT22;27754;45.414;11.084;2023-07-31T06:26:32;25.60;78.50
42097;DHT22;27754;45.414;11.084;2023-07-31T06:28:59;25.80;79.00
42097;DHT22;27754;45.414;11.084;2023-07-31T06:31:26;25.80;78.50
42097;DHT22;27754;45.414;11.084;2023-07-31T06:33:54;25.90;77.90
42097;DHT22;27754;45.414;11.084;2023-07-31T06:36:21;25.90;78.30
42097;DHT22;27754;45.414;11.084;2023-07-31T06:38:48;25.90;78.50
42097;DHT22;27754;45.414;11.084;2023-07-31T06:41:15;26.00;78.70
42097;DHT22;27754;45.414;11.084;2023-07-31T06:43:42;25.90;79.00
42097;DHT22;27754;45.414;11.084;2023-07-31T06:46:09;26.00;78.30
42097;DHT22;27754;45.414;11.084;2023-07-31T06:48:37;26.00;78.30
42097;DHT22;27754;45.414;11.084;2023-07-31T06:51:04;26.30;76.90
42097;DHT22;27754;45.414;11.084;2023-07-31T06:53:32;26.50;77.00
42097;DHT22;27754;45.414;11.084;2023-07-31T06:55:58;26.90;75.30
42097;DHT22;27754;45.414;11.084;2023-07-31T06:58:25;27.00;74.70
42097;DHT22;27754;45.414;11.084;2023-07-31T07:00:52;27.10;74.30
42097;DHT22;27754;45.414;11.084;2023-07-31T07:03:19;27.30;74.50
42097;DHT22;27754;45.414;11.084;2023-07-31T07:05:47;27.60;74.00
42097;DHT22;27754;45.414;11.084;2023-07-31T07:08:14;27.80;73.90
42097;DHT22;27754;45.414;11.084;2023-07-31T07:10:41;28.00;73.10
42097;DHT22;27754;45.414;11.084;2023-07-31T07:13:08;28.20;72.20
42097;DHT22;27754;45.414;11.084;2023-07-31T07:15:36;28.40;72.20
42097;DHT22;27754;45.414;11.084;2023-07-31T07:18:03;28.90;71.10
42097;DHT22;27754;45.414;11.084;2023-07-31T07:20:30;29.20;70.50
42097;DHT22;27754;45.414;11.084;2023-07-31T07:22:57;29.20;70.60
42097;DHT22;27754;45.414;11.084;2023-07-31T07:25:24;29.20;70.70
42097;DHT22;27754;45.414;11.084;2023-07-31T07:27:51;29.30;70.50
42097;DHT22;27754;45.414;11.084;2023-07-31T07:30:18;29.20;70.80
42097;DHT22;27754;45.414;11.084;2023-07-31T07:32:46;28.20;73.80
42097;DHT22;27754;45.414;11.084;2023-07-31T07:35:14;27.60;75.50
42097;DHT22;27754;45.414;11.084;2023-07-31T07:37:41;27.80;75.60
42097;DHT22;27754;45.414;11.084;2023-07-31T07:40:08;27.90;75.60
42097;DHT22;27754;45.414;11.084;2023-07-31T07:42:35;27.90;76.00
42097;DHT22;27754;45.414;11.084;2023-07-31T07:45:03;28.00;71.70
42097;DHT22;27754;45.414;11.084;2023-07-31T07:47:30;28.10;71.90
42097;DHT22;27754;45.414;11.084;2023-07-31T07:49:57;28.30;70.60
42097;DHT22;27754;45.414;11.084;2023-07-31T07:52:24;28.40;70.10
42097;DHT22;27754;45.414;11.084;2023-07-31T07:54:51;28.30;70.30
42097;DHT22;27754;45.414;11.084;2023-07-31T07:57:18;28.30;67.40
42097;DHT22;27754;45.414;11.084;2023-07-31T07:59:45;28.30;65.00
42097;DHT22;27754;45.414;11.084;2023-07-31T08:02:12;28.30;64.10
42097;DHT22;27754;45.414;11.084;2023-07-31T08:04:39;28.30;63.00
42097;DHT22;27754;45.414;11.084;2023-07-31T08:07:06;28.30;61.90
42097;DHT22;27754;45.414;11.084;2023-07-31T08:09:33;28.00;62.70
42097;DHT22;27754;45.414;11.084;2023-07-31T08:12:00;28.00;62.80
42097;DHT22;27754;45.414;11.084;2023-07-31T08:14:30;28.20;63.10
42097;DHT22;27754;45.414;11.084;2023-07-31T08:16:59;28.30;62.30
42097;DHT22;27754;45.414;11.084;2023-07-31T08:19:26;28.30;63.60
42097;DHT22;27754;45.414;11.084;2023-07-31T08:21:54;28.80;64.10
42097;DHT22;27754;45.414;11.084;2023-07-31T08:24:24;28.90;63.60
42097;DHT22;27754;45.414;11.084;2023-07-31T08:26:51;29.20;62.90
42097;DHT22;27754;45.414;11.084;2023-07-31T08:29:18;29.20;63.40
42097;DHT22;27754;45.414;11.084;2023-07-31T08:31:45;29.20;62.60
42097;DHT22;27754;45.414;11.084;2023-07-31T08:34:12;29.20;62.40
42097;DHT22;27754;45.414;11.084;2023-07-31T08:36:39;29.20;60.90
42097;DHT22;27754;45.414;11.084;2023-07-31T08:39:07;28.70;59.30
42097;DHT22;27754;45.414;11.084;2023-07-31T08:41:39;28.80;59.50
42097;DHT22;27754;45.414;11.084;2023-07-31T08:44:10;29.10;59.10
42097;DHT22;27754;45.414;11.084;2023-07-31T08:46:38;29.10;58.10
42097;DHT22;27754;45.414;11.084;2023-07-31T08:49:07;29.40;58.50
42097;DHT22;27754;45.414;11.084;2023-07-31T08:51:34;29.20;58.80
42097;DHT22;27754;45.414;11.084;2023-07-31T08:54:02;29.10;59.00
42097;DHT22;27754;45.414;11.084;2023-07-31T08:56:32;29.10;59.00
42097;DHT22;27754;45.414;11.084;2023-07-31T08:59:02;29.10;59.20
42097;DHT22;27754;45.414;11.084;2023-07-31T09:01:34;29.30;59.70
42097;DHT22;27754;45.414;11.084;2023-07-31T09:04:04;29.30;59.70
42097;DHT22;27754;45.414;11.084;2023-07-31T09:06:32;29.20;58.70
42097;DHT22;27754;45.414;11.084;2023-07-31T09:09:00;29.30;58.60
42097;DHT22;27754;45.414;11.084;2023-07-31T09:11:27;29.50;58.90
42097;DHT22;27754;45.414;11.084;2023-07-31T09:13:57;29.40;59.50
42097;DHT22;27754;45.414;11.084;2023-07-31T09:16:28;29.40;59.70
42097;DHT22;27754;45.414;11.084;2023-07-31T09:18:58;29.30;58.40
42097;DHT22;27754;45.414;11.084;2023-07-31T09:21:25;29.30;59.30
42097;DHT22;27754;45.414;11.084;2023-07-31T09:23:54;29.10;60.10
42097;DHT22;27754;45.414;11.084;2023-07-31T09:26:36;29.20;59.80
42097;DHT22;27754;45.414;11.084;2023-07-31T09:29:07;29.30;60.70
42097;DHT22;27754;45.414;11.084;2023-07-31T09:31:45;29.10;59.10
42097;DHT22;27754;45.414;11.084;2023-07-31T09:34:12;29.10;59.10
42097;DHT22;27754;45.414;11.084;2023-07-31T09:36:48;29.00;59.60
42097;DHT22;27754;45.414;11.084;2023-07-31T09:39:17;29.10;59.30
42097;DHT22;27754;45.414;11.084;2023-07-31T09:41:53;29.10;59.30
42097;DHT22;27754;45.414;11.084;2023-07-31T09:44:20;29.30;58.60
42097;DHT22;27754;45.414;11.084;2023-07-31T09:46:48;29.20;58.50
42097;DHT22;27754;45.414;11.084;2023-07-31T09:49:15;29.10;60.90
42097;DHT22;27754;45.414;11.084;2023-07-31T09:51:42;29.20;59.80
42097;DHT22;27754;45.414;11.084;2023-07-31T09:56:45;29.70;57.60
42097;DHT22;27754;45.414;11.084;2023-07-31T09:59:14;29.50;58.60
42097;DHT22;27754;45.414;11.084;2023-07-31T10:01:42;29.70;57.60
42097;DHT22;27754;45.414;11.084;2023-07-31T10:04:10;29.50;58.50
42097;DHT22;27754;45.414;11.084;2023-07-31T10:06:38;29.30;59.20
42097;DHT22;27754;45.414;11.084;2023-07-31T10:09:09;29.20;59.20
42097;DHT22;27754;45.414;11.084;2023-07-31T10:12:00;29.30;59.30
42097;DHT22;27754;45.414;11.084;2023-07-31T10:14:30;29.50;59.40
42097;DHT22;27754;45.414;11.084;2023-07-31T10:16:58;29.70;58.60
42097;DHT22;27754;45.414;11.084;2023-07-31T10:19:26;29.40;58.10
42097;DHT22;27754;45.414;11.084;2023-07-31T10:21:54;29.50;58.50
42097;DHT22;27754;45.414;11.084;2023-07-31T10:24:24;29.60;59.30
42097;DHT22;27754;45.414;11.084;2023-07-31T10:26:52;29.60;57.80
42097;DHT22;27754;45.414;11.084;2023-07-31T10:29:20;29.40;59.10
42097;DHT22;27754;45.414;11.084;2023-07-31T10:31:49;29.60;61.40
42097;DHT22;27754;45.414;11.084;2023-07-31T10:34:17;29.80;59.80
42097;DHT22;27754;45.414;11.084;2023-07-31T10:36:44;29.80;58.90
42097;DHT22;27754;45.414;11.084;2023-07-31T10:39:34;29.80;58.90
42097;DHT22;27754;45.414;11.084;2023-07-31T10:42:10;29.60;58.50
42097;DHT22;27754;45.414;11.084;2023-07-31T10:44:37;29.60;60.30
42097;DHT22;27754;45.414;11.084;2023-07-31T10:47:04;29.70;58.30
42097;DHT22;27754;45.414;11.084;2023-07-31T10:49:33;29.70;60.80
42097;DHT22;27754;45.414;11.084;2023-07-31T10:52:03;29.80;58.70
42097;DHT22;27754;45.414;11.084;2023-07-31T10:54:30;29.80;59.20
42097;DHT22;27754;45.414;11.084;2023-07-31T10:56:57;29.90;58.70
42097;DHT22;27754;45.414;11.084;2023-07-31T10:59:27;29.90;59.70
42097;DHT22;27754;45.414;11.084;2023-07-31T11:02:01;29.90;58.90
42097;DHT22;27754;45.414;11.084;2023-07-31T11:04:30;29.80;59.40
42097;DHT22;27754;45.414;11.084;2023-07-31T11:07:02;29.80;60.10
42097;DHT22;27754;45.414;11.084;2023-07-31T11:09:32;30.00;59.70
42097;DHT22;27754;45.414;11.084;2023-07-31T11:12:00;30.00;60.30
42097;DHT22;27754;45.414;11.084;2023-07-31T11:14:27;29.80;58.90
42097;DHT22;27754;45.414;11.084;2023-07-31T11:16:54;29.90;59.40
42097;DHT22;27754;45.414;11.084;2023-07-31T11:19:22;30.20;59.90
42097;DHT22;27754;45.414;11.084;2023-07-31T11:21:52;29.70;58.40
42097;DHT22;27754;45.414;11.084;2023-07-31T11:24:20;29.80;59.30
42097;DHT22;27754;45.414;11.084;2023-07-31T11:26:53;29.80;59.90
42097;DHT22;27754;45.414;11.084;2023-07-31T11:29:21;29.80;59.50
42097;DHT22;27754;45.414;11.084;2023-07-31T11:31:53;29.80;60.60
42097;DHT22;27754;45.414;11.084;2023-07-31T11:34:20;29.90;60.80
42097;DHT22;27754;45.414;11.084;2023-07-31T11:36:54;30.20;60.00
42097;DHT22;27754;45.414;11.084;2023-07-31T11:39:22;30.30;59.10
42097;DHT22;27754;45.414;11.084;2023-07-31T11:41:49;30.00;58.30
42097;DHT22;27754;45.414;11.084;2023-07-31T11:44:16;30.10;58.30
42097;DHT22;27754;45.414;11.084;2023-07-31T11:46:57;30.30;58.10
42097;DHT22;27754;45.414;11.084;2023-07-31T11:49:24;30.40;57.20
42097;DHT22;27754;45.414;11.084;2023-07-31T11:51:52;30.40;58.20
42097;DHT22;27754;45.414;11.084;2023-07-31T11:54:19;30.50;56.90
42097;DHT22;27754;45.414;11.084;2023-07-31T11:56:46;30.20;55.20
42097;DHT22;27754;45.414;11.084;2023-07-31T11:59:13;30.20;56.60
42097;DHT22;27754;45.414;11.084;2023-07-31T12:01:41;30.30;56.80
42097;DHT22;27754;45.414;11.084;2023-07-31T12:04:08;30.20;57.00
42097;DHT22;27754;45.414;11.084;2023-07-31T12:06:36;30.50;57.10
42097;DHT22;27754;45.414;11.084;2023-07-31T12:09:04;30.30;57.70
42097;DHT22;27754;45.414;11.084;2023-07-31T12:11:43;30.60;56.90
42097;DHT22;27754;45.414;11.084;2023-07-31T12:14:26;30.60;57.50
42097;DHT22;27754;45.414;11.084;2023-07-31T12:16:57;30.70;56.90
42097;DHT22;27754;45.414;11.084;2023-07-31T12:19:26;30.70;56.80
42097;DHT22;27754;45.414;11.084;2023-07-31T12:21:58;30.50;58.00
42097;DHT22;27754;45.414;11.084;2023-07-31T12:24:28;30.80;57.00
42097;DHT22;27754;45.414;11.084;2023-07-31T12:26:56;30.80;54.90
42097;DHT22;27754;45.414;11.084;2023-07-31T12:29:22;30.70;56.00
42097;DHT22;27754;45.414;11.084;2023-07-31T12:31:50;30.60;55.80
42097;DHT22;27754;45.414;11.084;2023-07-31T12:34:18;30.70;55.60
42097;DHT22;27754;45.414;11.084;2023-07-31T12:36:45;31.00;55.60
42097;DHT22;27754;45.414;11.084;2023-07-31T12:39:13;31.00;54.60
42097;DHT22;27754;45.414;11.084;2023-07-31T12:41:40;31.30;54.40
42097;DHT22;27754;45.414;11.084;2023-07-31T12:44:07;31.00;55.60
42097;DHT22;27754;45.414;11.084;2023-07-31T12:46:33;30.90;56.20
42097;DHT22;27754;45.414;11.084;2023-07-31T12:49:01;31.00;56.70
42097;DHT22;27754;45.414;11.084;2023-07-31T12:51:29;31.00;55.90
42097;DHT22;27754;45.414;11.084;2023-07-31T12:53:56;30.80;56.40
42097;DHT22;27754;45.414;11.084;2023-07-31T12:56:23;30.80;57.00
42097;DHT22;27754;45.414;11.084;2023-07-31T12:58:50;30.80;57.30
42097;DHT22;27754;45.414;11.084;2023-07-31T13:01:17;30.80;57.10
42097;DHT22;27754;45.414;11.084;2023-07-31T13:03:44;30.90;56.70
42097;DHT22;27754;45.414;11.084;2023-07-31T13:06:11;31.10;55.60
42097;DHT22;27754;45.414;11.084;2023-07-31T13:08:38;31.10;54.90
42097;DHT22;27754;45.414;11.084;2023-07-31T13:11:05;31.00;55.50
42097;DHT22;27754;45.414;11.084;2023-07-31T13:13:32;31.30;56.40
42097;DHT22;27754;45.414;11.084;2023-07-31T13:15:59;31.20;57.50
42097;DHT22;27754;45.414;11.084;2023-07-31T13:18:27;31.20;57.20
42097;DHT22;27754;45.414;11.084;2023-07-31T13:20:54;31.40;57.10
42097;DHT22;27754;45.414;11.084;2023-07-31T13:23:21;31.50;56.80
42097;DHT22;27754;45.414;11.084;2023-07-31T13:25:48;31.50;57.70
42097;DHT22;27754;45.414;11.084;2023-07-31T13:28:15;31.70;56.00
42097;DHT22;27754;45.414;11.084;2023-07-31T13:30:42;31.30;55.90
42097;DHT22;27754;45.414;11.084;2023-07-31T13:33:09;31.20;56.00
42097;DHT22;27754;45.414;11.084;2023-07-31T13:35:55;31.60;56.70
42097;DHT22;27754;45.414;11.084;2023-07-31T13:38:22;31.40;55.00
42097;DHT22;27754;45.414;11.084;2023-07-31T13:40:49;31.60;56.10
42097;DHT22;27754;45.414;11.084;2023-07-31T13:43:16;31.90;56.40
42097;DHT22;27754;45.414;11.084;2023-07-31T13:45:43;31.80;56.00
42097;DHT22;27754;45.414;11.084;2023-07-31T13:48:10;32.00;56.40
42097;DHT22;27754;45.414;11.084;2023-07-31T13:50:37;31.70;56.40
42097;DHT22;27754;45.414;11.084;2023-07-31T13:53:04;31.40;57.10
42097;DHT22;27754;45.414;11.084;2023-07-31T13:55:31;31.40;57.10
42097;DHT22;27754;45.414;11.084;2023-07-31T13:57:58;31.30;57.60
42097;DHT22;27754;45.414;11.084;2023-07-31T14:00:25;31.30;59.00
42097;DHT22;27754;45.414;11.084;2023-07-31T14:02:52;31.10;58.30
42097;DHT22;27754;45.414;11.084;2023-07-31T14:05:19;31.00;58.20
42097;DHT22;27754;45.414;11.084;2023-07-31T14:07:46;30.80;58.90
42097;DHT22;27754;45.414;11.084;2023-07-31T14:10:13;31.10;58.20
42097;DHT22;27754;45.414;11.084;2023-07-31T14:12:40;31.20;58.20
42097;DHT22;27754;45.414;11.084;2023-07-31T14:15:10;31.30;58.00
42097;DHT22;27754;45.414;11.084;2023-07-31T14:17:37;31.20;57.30
42097;DHT22;27754;45.414;11.084;2023-07-31T14:20:05;31.10;57.10
42097;DHT22;27754;45.414;11.084;2023-07-31T14:22:32;31.40;57.00
42097;DHT22;27754;45.414;11.084;2023-07-31T14:25:01;31.50;57.00
42097;DHT22;27754;45.414;11.084;2023-07-31T14:27:28;31.80;57.20
42097;DHT22;27754;45.414;11.084;2023-07-31T14:29:56;31.70;56.60
42097;DHT22;27754;45.414;11.084;2023-07-31T14:32:23;31.30;57.60
42097;DHT22;27754;45.414;11.084;2023-07-31T14:34:52;31.50;58.00
42097;DHT22;27754;45.414;11.084;2023-07-31T14:37:19;31.20;57.50
42097;DHT22;27754;45.414;11.084;2023-07-31T14:39:46;31.30;58.50
42097;DHT22;27754;45.414;11.084;2023-07-31T14:42:13;31.20;56.30
42097;DHT22;27754;45.414;11.084;2023-07-31T14:44:40;31.20;57.00
42097;DHT22;27754;45.414;11.084;2023-07-31T14:47:07;31.30;57.60
42097;DHT22;27754;45.414;11.084;2023-07-31T14:49:34;31.30;56.60
42097;DHT22;27754;45.414;11.084;2023-07-31T14:52:01;31.40;57.00
42097;DHT22;27754;45.414;11.084;2023-07-31T14:54:28;31.50;56.10
42097;DHT22;27754;45.414;11.084;2023-07-31T14:56:57;31.70;58.40
42097;DHT22;27754;45.414;11.084;2023-07-31T14:59:24;31.60;56.20
42097;DHT22;27754;45.414;11.084;2023-07-31T15:01:54;31.40;56.60
42097;DHT22;27754;45.414;11.084;2023-07-31T15:04:21;31.50;56.80
42097;DHT22;27754;45.414;11.084;2023-07-31T15:06:51;31.80;56.00
42097;DHT22;27754;45.414;11.084;2023-07-31T15:09:18;31.70;57.00
42097;DHT22;27754;45.414;11.084;2023-07-31T15:11:46;31.20;55.90
42097;DHT22;27754;45.414;11.084;2023-07-31T15:14:13;31.30;57.20
42097;DHT22;27754;45.414;11.084;2023-07-31T15:16:43;31.30;56.70
42097;DHT22;27754;45.414;11.084;2023-07-31T15:19:10;31.30;58.00
42097;DHT22;27754;45.414;11.084;2023-07-31T15:21:38;31.20;57.40
42097;DHT22;27754;45.414;11.084;2023-07-31T15:24:05;31.40;57.20
42097;DHT22;27754;45.414;11.084;2023-07-31T15:26:32;31.50;56.60
42097;DHT22;27754;45.414;11.084;2023-07-31T15:29:06;31.40;56.70